Česky Dansk Deutsch English Español Suomi Français Magyar Italiano Nederlands norsk Polski Português svenska Türkçe

 

Het Weer

Udon Thani (Thailand)

12:00, 23 augustus 2016 (GMT)

NWNNE
WE
SWSSE
Home            
Udon Thani Nong Khai Vientiane Khon Kaen Loei Sakon Nakhon Roi Et Chaiyaphum Thakhek Nakhon Phanom Savannakhet Mukdahan Sayaboury Nan Phitsanulok Nakhon Ratchasima Luang-Prabang Uttaradit Phrae Ubon Ratchathani Nakhon Sawan Vinh Pakse

Om een weerknop op uw website of weblog te plaatsen, copieer onderstaande code en plak die in uw pagina. In het eerste vakje staat HTML-code, in het tweede vakje UBB-code.


Add to Google

Details

Wind speed:2 bf, 4 kn, 2.1 m/s, 4.6 miles/h, 7.4 km/h
Wind direction:SSE, 150°
Visibility:Greater than 10000 m, 10 km, 32800 ft, 6.2 miles
Clouds:Ein wenig bewölkt at 4500 ft, 1372 m
Durchbrochene Bewölkung at 10000 ft, 3048 m
Temperature:29°C, 84°F
Gefühlte Temperatur:35°C, 95°F
Dew-point:26°C, 79°F
Atmospheric pressure:1002 hPa, 751.6 mmHg, 29.59 inHg, 0.989 atm
Relative humidity:83.9 %
METAR:VTUD 231200Z 15004KT 9999 FEW045 BKN100 29/26 Q1002

Snelkoppelingen

Actuele weersinformatie van de hele wereld. Voeg locaties toe met het plus (+) symbool. Deze snelkoppelingen kunnen worden toegevoegd aan Google.

Lid van de Technetium groep

website free tracking
StatCounter NetStat W3C Validator

04-08-2020 02:03:13
astro.technetium.be money.technetium.be phote.technetium.be tafeltennistafel.technetium.be www.ligfiets.net